KHFY

Indy South Greenwood Airport

Indianapolis, Indiana, USA
METAR KHFY 232115Z AUTO 30007KT 10SM CLR 14/01 A3024 RMK AO2 T01370007
Observed Flight Rules
Oct-23 @ 21:15 UTC (5 minutes ago) Visual Flight Rules
Wind Visibility Clouds
300° at 7 knots 10 miles
  • Clear skies
Temperatures Readings
Current 14°C / 57°F
Dewpoint 1°C / 34°F
Humidity 41%
Altimeter 30.24" Hg
Pressure 1024 hPa
Elevation 251
METAR KHFY 232115Z AUTO 30007KT 10SM CLR 14/01 A3024 RMK AO2 T01370007
Observed Flight Rules
Oct-23 @ 21:15 UTC
(5 minutes ago)
VFR
Wind Visibility
300° at 7 knots 10 miles
Clouds
  • Clear skies
Temperature Dewpoint
14°C / 57°F 1°C / 34°F
Humidity Altimeter Pressure
41% 30.24" Hg 1024 hPa